Saint Cloud, MN (56396)

1:16 AM CDT on July 03, 2015 (GMT -0500)
Quail Meadows | | Change Station
CLOSE
Current Station
Personal Weather Station
Location: St Cloud, MN
Elevation: 1039 ft
Nearby Weather Stations

Elev 1039 ft 45.58 °N, 94.22 °W | Updated 12 minutes ago

Clear
Clear
59.4 °F
Feels Like 59.4 °F
N
2.7
Wind Variable Wind from SW

Today
High -- | Low -- °F
--% Chance of Precip.
Yesterday
High -- | Low -- °F
Precip. -- in
5:32 AM 9:09 PM
Full, 98% visible
Pressure 30.00 in
Visibility 10.0 miles
Clouds Clear
Dew Point 56 °F
Humidity 89%
Rainfall 0.00 in
Snow Depth Not available.
UV 0 out of 12
Pollen 2.90 out of 12
Air Quality Not available.
Flu Activity Not available.
METAR KSTC 030553Z AUTO 00000KT 10SM CLR 14/13 A2998 RMK AO2 SLP157 T01390128 10233 20133 402500100 50001

More Conditions Fewer Conditions

Pressure 30.00 in
Visibility 10.0 miles
Clouds Clear
Dew Point 56 °F
Humidity 89%
Rainfall 0.00 in
Snow Depth Not available.
UV 0 out of 12
Pollen 2.90 out of 12
Air Quality Not available.
Flu Activity Not available.
METAR KSTC 030553Z AUTO 00000KT 10SM CLR 14/13 A2998 RMK AO2 SLP157 T01390128 10233 20133 402500100 50001

More Conditions Fewer Conditions

10-Day Weather Forecast

×

Almanac

Astronomy

Jul. 03, 2015 Rise Set
Actual Time
Civil Twilight
Nautical Twilight
Astronomical Twilight
Moon
Length of Visible Light
Length of Day
Tomorrow will be .
, % of the Moon is Illuminated

Today's Extremes

State Highs State Lows

Community

WunderPhotos

Upload Photos

1,834,634 photos uploaded!

WunderBlogs® & News

Nearby

Air Quality

  Air Quality AQ Index Pollutant
Not available.

Snow Depth

Station Depth Elevation

Earthquake Activity

City Distance Mag. Time & Date
Minimum magnitude displayed is 2.5.

Coastal Water Temperatures

Place Temperature

Stations

Nearby Weather Stations

Station Location Temp. Windchill Dew Point Humidity Wind Precip. Elev Updated Type